Hollywood, Arkansas
Current Conditions -  °F | °C
As of 9:31 AM on Friday 19 Dec 2014 (Local Time) from KADF Reporting Station
Haze Haze  
Wind Chill: 43°   Ceiling: 600
Heat Index: 43°   Visibility: 5mi
Dew Point: 43°   Wind: 3mph
Humidity: 100%   Direction: NA
Pressure: 30.29"   Gusts: NA
Location:  34.0941°N, 93.0475°W
Report Text: KADF 191531Z AUTO VRB03KT 5SM BR BKN006 06/06 A3029 RMK AO2 PK WND 12080/1517
Loading
Personal Weather Stations






























Interactive Weather Map New forecast layout! Learn more

10-Day Weather Forecast

Advertisements
Track Severe Weather on mobile